Millerville, Alabama
Current Conditions -  °F | °C
As of 3:35 PM on Saturday 22 Nov 2014 (Local Time) from KALX Reporting Station
Broken Clouds Broken Clouds  
Wind Chill: 67°   Ceiling: 5000
Heat Index: 67°   Visibility: 10mi
Dew Point: 47°   Wind: 6mph
Humidity: 50%   Direction: 110°ESE
Pressure: 30.19"   Gusts: NA
Location:  33.19°N, 85.93°W
Report Text: KALX 222135Z AUTO 11005KT 10SM SCT040 BKN050 BKN065 19/09 A3019 RMK AO2 T01930085
Loading
Personal Weather Stations






























Interactive Weather Map New forecast layout! Learn more

10-Day Weather Forecast

Advertisements
Track Severe Weather on mobile